createdAt,value
2023-10-16T00:03:44.093Z,9.60
2023-10-16T00:08:55.119Z,9.60
2023-10-16T00:13:59.148Z,9.60
2023-10-16T00:19:02.552Z,9.60
2023-10-16T00:24:08.842Z,9.50
2023-10-16T00:29:20.835Z,9.50
2023-10-16T00:34:24.337Z,9.50
2023-10-16T00:39:30.367Z,9.40
2023-10-16T00:44:35.951Z,9.50
2023-10-16T00:49:40.848Z,9.40
2023-10-16T00:54:48.033Z,9.40
2023-10-16T00:59:51.403Z,9.20
2023-10-16T01:04:54.723Z,9.20
2023-10-16T01:10:00.943Z,9.20
2023-10-16T01:15:05.718Z,9.20
2023-10-16T01:20:11.189Z,9.20
2023-10-16T01:25:16.779Z,9.00
2023-10-16T01:30:20.729Z,9.00
2023-10-16T01:35:24.031Z,9.00
2023-10-16T01:40:29.587Z,9.00
2023-10-16T01:45:33.415Z,8.90
2023-10-16T01:50:39.596Z,8.90
2023-10-16T01:55:52.534Z,8.90
2023-10-16T02:00:56.430Z,8.90
2023-10-16T02:05:59.751Z,8.60
2023-10-16T02:11:04.638Z,8.40
2023-10-16T02:16:11.413Z,8.40
2023-10-16T02:21:15.573Z,8.40
2023-10-16T02:26:20.748Z,8.30
2023-10-16T02:31:24.233Z,8.30
2023-10-16T02:36:27.962Z,8.00
2023-10-16T02:41:32.622Z,7.90
2023-10-16T02:46:37.512Z,7.90
2023-10-16T02:51:40.970Z,7.80
2023-10-16T02:56:45.747Z,7.90
2023-10-16T03:01:51.917Z,7.90
2023-10-16T03:06:55.900Z,7.80
2023-10-16T03:12:09.191Z,7.60
2023-10-16T03:17:18.619Z,7.60
2023-10-16T03:22:22.379Z,7.70
2023-10-16T03:27:30.385Z,7.60
2023-10-16T03:32:35.430Z,7.50
2023-10-16T03:37:38.821Z,7.50
2023-10-16T03:42:45.358Z,7.60
2023-10-16T03:47:52.989Z,7.70
2023-10-16T03:52:56.552Z,7.70
2023-10-16T03:58:02.229Z,7.70
2023-10-16T04:03:10.386Z,7.60
2023-10-16T04:08:14.933Z,7.60
2023-10-16T04:13:19.984Z,7.50
2023-10-16T04:18:31.849Z,7.60
2023-10-16T04:23:38.850Z,7.40
2023-10-16T04:29:12.384Z,7.40
2023-10-16T04:34:27.022Z,7.50
2023-10-16T04:39:53.497Z,7.50
2023-10-16T04:45:22.927Z,7.50
2023-10-16T04:50:44.300Z,7.40
2023-10-16T04:56:05.770Z,7.40
2023-10-16T05:01:34.094Z,7.20
2023-10-16T05:06:50.360Z,6.80
2023-10-16T05:12:07.750Z,6.50
2023-10-16T05:17:22.998Z,6.50
2023-10-16T05:22:43.697Z,6.60
2023-10-16T05:28:04.418Z,6.60
2023-10-16T05:33:26.748Z,6.30
2023-10-16T05:38:47.578Z,6.40
2023-10-16T05:44:08.120Z,6.20
2023-10-16T05:49:30.388Z,6.20
2023-10-16T05:54:51.020Z,6.20
2023-10-16T06:00:13.772Z,6.30
2023-10-16T06:05:36.030Z,6.40
2023-10-16T06:10:56.976Z,6.50
2023-10-16T06:16:00.319Z,6.50
2023-10-16T06:21:05.322Z,6.60
2023-10-16T06:26:10.098Z,6.80
2023-10-16T06:31:14.655Z,6.80
2023-10-16T06:36:19.536Z,7.00
2023-10-16T06:41:23.487Z,7.20
2023-10-16T06:46:27.402Z,7.40
2023-10-16T06:51:35.795Z,7.40
2023-10-16T06:56:41.018Z,7.50
2023-10-16T07:01:53.595Z,7.60
2023-10-16T07:07:02.251Z,7.80
2023-10-16T07:12:13.818Z,8.00
2023-10-16T07:17:26.236Z,8.10
2023-10-16T07:23:01.628Z,8.40
2023-10-16T07:28:14.958Z,8.70
2023-10-16T07:33:25.371Z,8.90
2023-10-16T07:38:38.815Z,9.00
2023-10-16T07:43:47.945Z,9.20
2023-10-16T07:48:59.353Z,9.40
2023-10-16T07:54:09.899Z,9.50
2023-10-16T07:59:20.340Z,9.40
2023-10-16T08:04:37.614Z,9.60
2023-10-16T08:09:59.527Z,9.60
2023-10-16T08:15:14.048Z,9.70
2023-10-16T08:20:23.157Z,9.90
2023-10-16T08:25:36.883Z,9.90
2023-10-16T08:30:51.960Z,10.10
2023-10-16T08:36:00.060Z,9.80
2023-10-16T08:41:19.050Z,9.90
2023-10-16T08:46:32.847Z,10.10
2023-10-16T08:51:42.894Z,10.10
2023-10-16T08:56:50.679Z,10.30
2023-10-16T09:02:03.475Z,10.50
2023-10-16T09:07:22.214Z,10.70
2023-10-16T09:12:46.484Z,10.60
2023-10-16T09:17:52.413Z,10.70
2023-10-16T09:23:08.239Z,10.70
2023-10-16T09:28:20.850Z,11.10
2023-10-16T09:33:29.079Z,11.20
2023-10-16T09:38:37.151Z,11.30
2023-10-16T09:43:45.024Z,11.00
2023-10-16T09:49:00.786Z,10.90
2023-10-16T09:54:06.027Z,11.00
2023-10-16T09:59:26.781Z,11.20
2023-10-16T10:04:37.240Z,11.10
2023-10-16T10:09:44.393Z,11.30
2023-10-16T10:15:03.018Z,11.60
2023-10-16T10:20:25.920Z,11.50
2023-10-16T10:25:47.201Z,11.80
2023-10-16T10:30:54.957Z,11.80
2023-10-16T10:36:32.061Z,11.80
2023-10-16T10:41:56.433Z,11.90
2023-10-16T10:47:06.128Z,12.40
2023-10-16T10:52:14.533Z,12.50
2023-10-16T10:57:21.269Z,12.20
2023-10-16T11:02:54.379Z,12.50
2023-10-16T11:08:19.662Z,12.20
2023-10-16T11:13:32.430Z,12.20
2023-10-16T11:18:42.678Z,12.30
2023-10-16T11:23:57.859Z,12.40
2023-10-16T11:29:06.428Z,12.80
2023-10-16T11:34:24.034Z,12.50
2023-10-16T11:39:35.291Z,12.70
2023-10-16T11:44:47.355Z,12.80
2023-10-16T11:50:15.477Z,12.50
2023-10-16T11:55:27.360Z,12.60
2023-10-16T12:00:37.878Z,12.40
2023-10-16T12:05:46.754Z,12.60
2023-10-16T12:10:53.027Z,12.50
2023-10-16T12:16:14.375Z,12.70
2023-10-16T12:21:30.235Z,12.80
2023-10-16T12:26:50.631Z,13.00
2023-10-16T12:31:58.787Z,12.80
2023-10-16T12:37:09.347Z,12.60
2023-10-16T12:42:28.696Z,12.60
2023-10-16T12:47:44.757Z,12.90
2023-10-16T12:52:56.633Z,13.00
2023-10-16T12:58:16.204Z,12.90
2023-10-16T13:03:25.743Z,13.20
2023-10-16T13:08:34.607Z,13.40
2023-10-16T13:13:39.941Z,13.40
2023-10-16T13:18:50.378Z,13.20
2023-10-16T13:23:57.800Z,13.30
2023-10-16T13:29:15.531Z,13.40
2023-10-16T13:34:26.113Z,13.40
2023-10-16T13:39:37.485Z,13.10
2023-10-16T13:44:45.689Z,13.20
2023-10-16T13:49:54.546Z,13.30
2023-10-16T13:55:02.501Z,13.50
2023-10-16T14:00:07.836Z,13.50
2023-10-16T14:05:14.747Z,13.60
2023-10-16T14:10:25.460Z,13.60
2023-10-16T14:15:36.181Z,13.80
2023-10-16T14:20:42.944Z,14.30
2023-10-16T14:25:50.822Z,14.30
2023-10-16T14:31:02.450Z,14.00
2023-10-16T14:36:12.308Z,14.20
2023-10-16T14:41:28.291Z,14.10
2023-10-16T14:46:38.277Z,14.50
2023-10-16T14:51:43.378Z,14.50
2023-10-16T14:56:54.256Z,14.40
2023-10-16T15:02:12.024Z,14.10
2023-10-16T15:07:17.437Z,13.90
2023-10-16T15:12:23.610Z,14.20
2023-10-16T15:17:29.748Z,14.20
2023-10-16T15:22:34.502Z,14.20
2023-10-16T15:27:44.037Z,14.10
2023-10-16T15:32:48.782Z,13.80
2023-10-16T15:37:57.828Z,13.50
2023-10-16T15:43:06.958Z,13.60
2023-10-16T15:48:15.201Z,13.50
2023-10-16T15:53:25.869Z,13.40
2023-10-16T15:58:35.534Z,13.20
2023-10-16T16:03:39.272Z,13.00
2023-10-16T16:08:42.813Z,12.90
2023-10-16T16:13:48.066Z,12.80
2023-10-16T16:18:51.373Z,12.70
2023-10-16T16:23:54.951Z,12.60
2023-10-16T16:28:59.565Z,12.50
2023-10-16T16:34:02.947Z,12.50
2023-10-16T16:39:13.572Z,12.40
2023-10-16T16:44:18.676Z,12.40
2023-10-16T16:49:22.073Z,12.10
2023-10-16T16:54:27.973Z,12.00
2023-10-16T16:59:32.677Z,11.80
2023-10-16T17:04:36.225Z,11.60
2023-10-16T17:09:39.599Z,11.50
2023-10-16T17:14:44.399Z,11.30
2023-10-16T17:19:48.981Z,11.20
2023-10-16T17:24:52.598Z,11.20
2023-10-16T17:29:57.432Z,10.80
2023-10-16T17:35:00.867Z,10.70
2023-10-16T17:40:08.129Z,10.50
2023-10-16T17:45:12.935Z,10.40
2023-10-16T17:50:16.389Z,10.40
2023-10-16T17:55:19.917Z,10.30
2023-10-16T18:00:26.803Z,10.40
2023-10-16T18:05:34.368Z,10.10
2023-10-16T18:10:42.524Z,10.10
2023-10-16T18:15:52.706Z,10.00
2023-10-16T18:20:57.706Z,9.90
2023-10-16T18:26:01.022Z,9.80
2023-10-16T18:31:05.761Z,9.70
2023-10-16T18:36:09.663Z,9.70
2023-10-16T18:41:13.569Z,9.50
2023-10-16T18:46:18.413Z,9.30
2023-10-16T18:51:22.906Z,9.30
2023-10-16T18:56:27.176Z,9.30
2023-10-16T19:01:32.830Z,9.20
2023-10-16T19:06:36.198Z,9.20
2023-10-16T19:11:39.719Z,9.10
2023-10-16T19:16:44.614Z,8.80
2023-10-16T19:21:47.910Z,8.60
2023-10-16T19:26:53.954Z,8.50
2023-10-16T19:31:58.939Z,8.50
2023-10-16T19:37:03.116Z,8.40
2023-10-16T19:42:06.597Z,8.30
2023-10-16T19:47:11.518Z,8.30
2023-10-16T19:52:18.113Z,8.20
2023-10-16T19:57:21.396Z,8.30
2023-10-16T20:02:26.254Z,8.10
2023-10-16T20:07:29.491Z,8.00
2023-10-16T20:12:32.910Z,7.80
2023-10-16T20:17:38.822Z,7.70
2023-10-16T20:22:42.270Z,7.70
2023-10-16T20:27:46.220Z,7.60
2023-10-16T20:32:51.085Z,7.80
2023-10-16T20:37:54.658Z,7.80
2023-10-16T20:42:58.303Z,7.90
2023-10-16T20:48:06.567Z,7.90
2023-10-16T20:53:10.856Z,8.00
2023-10-16T20:58:19.199Z,7.80
2023-10-16T21:03:24.056Z,7.70
2023-10-16T21:08:28.128Z,7.60
2023-10-16T21:13:31.572Z,7.50
2023-10-16T21:18:36.323Z,7.20
2023-10-16T21:23:39.690Z,7.10
2023-10-16T21:28:43.067Z,7.10
2023-10-16T21:33:49.085Z,7.00
2023-10-16T21:38:53.079Z,6.90
2023-10-16T21:43:56.468Z,6.80
2023-10-16T21:49:01.330Z,6.70
2023-10-16T21:54:05.149Z,6.70
2023-10-16T21:59:11.095Z,6.70
2023-10-16T22:04:16.521Z,6.70
2023-10-16T22:09:22.809Z,6.60
2023-10-16T22:14:26.792Z,6.70
2023-10-16T22:19:38.087Z,6.70
2023-10-16T22:24:41.338Z,6.60
2023-10-16T22:29:46.469Z,6.50
2023-10-16T22:34:51.130Z,6.50
2023-10-16T22:39:54.429Z,6.40
2023-10-16T22:44:59.098Z,6.50
2023-10-16T22:50:04.359Z,6.30
2023-10-16T22:55:08.440Z,6.20
2023-10-16T23:00:14.399Z,6.10
2023-10-16T23:05:19.206Z,6.10
2023-10-16T23:10:22.524Z,6.20
2023-10-16T23:15:32.279Z,6.00
2023-10-16T23:20:37.042Z,6.00
2023-10-16T23:25:42.344Z,5.90
2023-10-16T23:30:45.767Z,5.90
2023-10-16T23:35:58.766Z,5.90
2023-10-16T23:41:05.240Z,5.80
2023-10-16T23:46:12.236Z,5.80
2023-10-16T23:51:17.449Z,5.80
2023-10-16T23:56:27.404Z,5.80
